Akron, Colorado
Current Conditions -  °F | °C
As of 8:53 PM on Sunday 23 Nov 2014 (Local Time) from KAKO Reporting Station
Clear Clear  
Wind Chill: -10°   Ceiling: Unl
Heat Index: -4°   Visibility: 10mi
Dew Point: -10°   Wind: 13mph
Humidity: 63%   Direction: 280°W
Pressure: 29.85"   Gusts: NA
Location:  40.16°N, 103.21°W
Report Text: KAKO 240353Z AUTO 28011KT 10SM CLR M04/M10 A2985 RMK AO2 SLP135 T10391100
Loading
Personal Weather Stations






























Interactive Weather Map New forecast layout! Learn more

10-Day Weather Forecast

Advertisements
Track Severe Weather on mobile